Time;durP1;ratioP1;P1;durP2;ratioP2;P2;SDS_P1;SDS_P2;PMS_P1;PMS_P2;Temp;Humidity;BMP_temperature;BMP_pressure;BME280_temperature;BME280_humidity;BME280_pressure;Samples;Min_cycle;Max_cycle;Signal;HPM_P1;HPM_P2
2021/03/18 00:01:45;;;;;;;13.23;6.60;;;;;;;3.51;80.64;99550.74;126253;1099;104291;-79
2021/03/18 00:04:16;;;;;;;16.10;7.17;;;;;;;3.51;81.04;99548.15;126286;1099;104155;-76
2021/03/18 00:06:47;;;;;;;12.20;6.00;;;;;;;3.50;80.52;99555.02;125319;1099;104140;-77
2021/03/18 00:09:19;;;;;;;14.43;6.73;;;;;;;3.52;81.13;99560.28;126127;1099;104242;-77
2021/03/18 00:11:50;;;;;;;13.60;6.93;;;;;;;3.51;81.14;99551.63;126296;1099;104184;-78
2021/03/18 00:14:23;;;;;;;15.27;7.20;;;;;;;3.53;80.99;99549.98;126216;1099;104169;-78
2021/03/18 00:16:52;;;;;;;13.93;7.00;;;;;;;3.54;81.15;99546.58;126207;1099;104236;-77
2021/03/18 00:19:21;;;;;;;15.53;7.60;;;;;;;3.56;80.95;99550.13;126262;1099;104339;-80
2021/03/18 00:21:50;;;;;;;14.47;6.83;;;;;;;3.59;80.60;99554.59;126261;1099;104162;-78
2021/03/18 00:24:19;;;;;;;15.30;7.37;;;;;;;3.60;80.85;99548.59;126289;1099;104328;-79
2021/03/18 00:26:48;;;;;;;13.90;6.90;;;;;;;3.61;80.57;99547.76;126208;1099;104272;-79
2021/03/18 00:29:17;;;;;;;15.53;7.47;;;;;;;3.63;80.46;99551.34;126130;1099;104143;-79
2021/03/18 00:31:46;;;;;;;15.93;7.27;;;;;;;3.65;81.30;99547.10;126163;1099;104725;-79
2021/03/18 00:34:15;;;;;;;14.07;7.30;;;;;;;3.70;80.52;99550.80;126295;1099;104257;-79
2021/03/18 00:36:44;;;;;;;14.97;6.77;;;;;;;3.72;80.77;99548.27;126122;1099;104149;-79
2021/03/18 00:39:14;;;;;;;14.87;7.17;;;;;;;3.69;81.03;99556.79;126173;1099;104267;-79
2021/03/18 00:41:42;;;;;;;15.60;6.97;;;;;;;3.66;80.51;99554.08;126206;1099;104284;-79
2021/03/18 00:44:11;;;;;;;15.83;7.40;;;;;;;3.63;80.28;99553.02;126293;1098;104265;-78
2021/03/18 00:46:40;;;;;;;16.60;7.70;;;;;;;3.61;80.39;99558.14;126217;1098;104140;-78
2021/03/18 00:49:10;;;;;;;13.23;6.60;;;;;;;3.59;80.35;99560.66;126300;1099;104155;-77
2021/03/18 00:51:39;;;;;;;16.03;6.90;;;;;;;3.56;80.44;99555.31;126191;1099;104139;-78
2021/03/18 00:54:08;;;;;;;14.33;7.47;;;;;;;3.57;80.87;99545.85;126219;1099;104182;-78
2021/03/18 00:56:37;;;;;;;14.03;7.17;;;;;;;3.58;80.99;99558.90;126162;1099;104273;-78
2021/03/18 00:59:06;;;;;;;13.67;6.97;;;;;;;3.59;80.38;99547.69;126147;1099;104146;-79
2021/03/18 01:01:36;;;;;;;13.00;7.60;;;;;;;3.57;80.25;99543.26;126159;1099;105376;-79
2021/03/18 01:04:06;;;;;;;15.90;8.17;;;;;;;3.59;80.51;99549.40;126223;1099;104224;-78
2021/03/18 01:06:37;;;;;;;15.60;7.90;;;;;;;3.57;80.24;99541.55;126265;1099;104146;-78
2021/03/18 01:09:08;;;;;;;15.93;7.93;;;;;;;3.57;80.77;99551.92;126118;1099;104178;-79
2021/03/18 01:11:41;;;;;;;17.53;9.13;;;;;;;3.56;80.26;99544.94;126136;1099;104264;-79
2021/03/18 01:14:12;;;;;;;16.00;8.40;;;;;;;3.56;80.77;99547.53;126303;1099;104576;-78
2021/03/18 01:16:47;;;;;;;17.33;8.80;;;;;;;3.54;81.09;99543.11;126185;1099;104028;-78
2021/03/18 01:19:18;;;;;;;18.03;8.53;;;;;;;3.55;80.15;99548.38;126196;1099;104191;-79
2021/03/18 01:21:50;;;;;;;16.60;8.30;;;;;;;3.56;80.06;99549.25;126181;1098;104306;-79
2021/03/18 01:24:19;;;;;;;16.47;8.60;;;;;;;3.56;80.72;99551.84;126260;1099;104150;-79
2021/03/18 01:26:48;;;;;;;15.97;7.80;;;;;;;3.56;80.13;99554.44;126180;1099;101888;-78
2021/03/18 01:29:17;;;;;;;17.57;8.63;;;;;;;3.54;80.59;99553.48;126260;1099;104168;-78
2021/03/18 01:31:46;;;;;;;17.30;7.80;;;;;;;3.51;80.32;99562.00;126196;1099;104274;-78
2021/03/18 01:34:17;;;;;;;16.75;8.05;;;;;;;3.50;80.23;99554.14;126132;1099;101974;-79
2021/03/18 01:36:46;;;;;;;18.20;9.00;;;;;;;3.51;80.20;99558.52;126354;1099;104264;-79
2021/03/18 01:39:15;;;;;;;21.57;9.20;;;;;;;3.52;80.67;99574.16;126273;1099;104171;-78
2021/03/18 01:41:44;;;;;;;19.20;9.60;;;;;;;3.51;80.18;99551.63;126075;1099;104155;-79
2021/03/18 01:44:12;;;;;;;17.80;9.30;;;;;;;3.49;80.43;99568.83;126180;1099;104227;-79
2021/03/18 01:46:41;;;;;;;19.93;9.97;;;;;;;3.48;80.28;99567.03;126238;1099;104335;-79
2021/03/18 01:49:10;;;;;;;18.40;8.93;;;;;;;3.47;80.52;99582.52;126226;1099;104275;-78
2021/03/18 01:51:39;;;;;;;20.23;10.27;;;;;;;3.45;79.95;99566.88;126133;1099;104216;-79
2021/03/18 01:54:08;;;;;;;21.00;9.80;;;;;;;3.45;80.24;99572.07;126257;1099;104195;-79
2021/03/18 01:56:37;;;;;;;22.03;10.97;;;;;;;3.44;80.22;99575.47;126277;1099;104325;-79
2021/03/18 01:59:09;;;;;;;24.00;10.23;;;;;;;3.45;80.34;99576.38;126210;1099;104140;-79
2021/03/18 02:01:38;;;;;;;20.70;10.57;;;;;;;3.43;80.42;99578.90;126208;1099;104136;-79
2021/03/18 02:04:07;;;;;;;22.53;11.70;;;;;;;3.44;79.98;99578.06;126316;1099;104130;-79
2021/03/18 02:06:36;;;;;;;22.60;11.50;;;;;;;3.45;80.64;99579.85;126256;1099;104252;-79
2021/03/18 02:09:05;;;;;;;21.87;11.40;;;;;;;3.46;80.23;99579.05;126196;1099;104226;-79
2021/03/18 02:11:34;;;;;;;22.73;10.47;;;;;;;3.47;80.65;99591.19;126251;1099;104194;-79
2021/03/18 02:14:03;;;;;;;21.63;11.03;;;;;;;3.47;80.18;99574.74;126227;1099;104248;-78
2021/03/18 02:16:38;;;;;;;22.07;11.13;;;;;;;3.46;80.58;99588.52;126265;1099;104178;-78
2021/03/18 02:19:19;;;;;;;21.90;11.77;;;;;;;3.44;80.51;99591.03;126270;1099;104194;-78
2021/03/18 02:22:25;;;;;;;21.20;10.23;;;;;;;3.44;80.53;99584.96;126162;1099;104293;-78
2021/03/18 02:25:02;;;;;;;22.13;11.17;;;;;;;3.42;80.17;99582.30;126248;1099;119014;-79
2021/03/18 02:28:12;;;;;;;24.43;12.10;;;;;;;3.43;80.06;99589.27;126207;1099;103970;-79
2021/03/18 02:31:03;;;;;;;23.23;10.97;;;;;;;3.45;80.15;99600.60;126280;1099;104146;-78
2021/03/18 02:34:00;;;;;;;21.67;11.17;;;;;;;3.44;80.56;99596.22;125518;1099;104277;-78
2021/03/18 02:36:35;;;;;;;25.30;11.63;;;;;;;3.42;80.32;99597.86;126226;1099;104761;-79
2021/03/18 02:39:10;;;;;;;23.03;10.73;;;;;;;3.42;79.98;99603.05;126218;1099;105453;-79
2021/03/18 02:41:44;;;;;;;25.83;11.40;;;;;;;3.43;80.06;99589.27;126304;1098;104101;-79
2021/03/18 02:44:18;;;;;;;21.13;10.63;;;;;;;3.45;80.10;99602.31;126245;1099;104265;-78
2021/03/18 02:46:53;;;;;;;23.32;11.12;;;;;;;3.44;80.53;99606.59;126286;1099;104163;-78
2021/03/18 02:49:23;;;;;;;22.13;11.57;;;;;;;3.45;80.67;99612.69;126333;1099;105211;-78
2021/03/18 02:51:54;;;;;;;25.17;11.33;;;;;;;3.45;79.88;99598.01;126235;1099;104278;-79
2021/03/18 02:54:24;;;;;;;23.33;11.23;;;;;;;3.47;80.65;99611.93;126221;1099;104248;-80
2021/03/18 02:56:56;;;;;;;20.37;10.70;;;;;;;3.46;80.20;99612.77;126287;1099;104136;-79
2021/03/18 02:59:31;;;;;;;21.67;10.17;;;;;;;3.44;79.98;99610.90;126189;1099;104281;-79
2021/03/18 03:02:02;;;;;;;23.53;10.13;;;;;;;3.42;79.75;99609.11;126271;1099;104166;-78
2021/03/18 03:04:35;;;;;;;22.37;9.47;;;;;;;3.41;80.02;99641.06;126199;1098;104313;-78
2021/03/18 03:07:04;;;;;;;22.73;10.90;;;;;;;3.40;80.22;99621.13;126187;1099;104335;-79
2021/03/18 03:09:34;;;;;;;22.47;9.90;;;;;;;3.43;80.15;99625.58;126292;1099;104152;-79
2021/03/18 03:12:06;;;;;;;18.50;9.30;;;;;;;3.43;80.14;99620.39;126184;1099;104134;-78
2021/03/18 03:14:37;;;;;;;21.93;10.93;;;;;;;3.46;80.31;99619.64;126194;1099;104137;-79
2021/03/18 03:17:07;;;;;;;20.70;10.43;;;;;;;3.47;80.09;99627.50;126216;1099;104367;-77
2021/03/18 03:19:38;;;;;;;23.63;11.20;;;;;;;3.47;79.98;99629.20;126215;1099;104277;-78
2021/03/18 03:22:07;;;;;;;25.83;13.33;;;;;;;3.47;79.94;99627.50;126285;1099;104149;-78
2021/03/18 03:24:39;;;;;;;25.63;11.87;;;;;;;3.47;80.21;99634.40;126194;1099;104149;-78
2021/03/18 03:27:09;;;;;;;22.07;11.90;;;;;;;3.47;80.25;99635.28;126147;1099;104171;-78
2021/03/18 03:29:41;;;;;;;23.93;10.00;;;;;;;3.48;80.19;99639.66;126236;1098;104277;-78
2021/03/18 03:32:12;;;;;;;23.40;12.00;;;;;;;3.48;79.49;99637.06;126263;1099;104300;-78
2021/03/18 03:34:42;;;;;;;27.27;15.03;;;;;;;3.51;80.53;99642.41;126177;1099;104251;-78
2021/03/18 03:37:12;;;;;;;24.43;12.30;;;;;;;3.54;79.98;99652.94;126239;1099;104146;-78
2021/03/18 03:39:41;;;;;;;25.13;11.60;;;;;;;3.53;79.28;99647.67;126275;1098;104195;-77
2021/03/18 03:42:11;;;;;;;23.50;10.97;;;;;;;3.49;79.43;99654.42;126282;1099;105169;-79
2021/03/18 03:44:41;;;;;;;21.50;9.87;;;;;;;3.49;79.19;99667.39;126157;1099;104261;-79
2021/03/18 03:47:11;;;;;;;19.70;9.53;;;;;;;3.47;79.17;99657.73;126167;1099;104302;-79
2021/03/18 03:49:41;;;;;;;21.20;9.47;;;;;;;3.47;79.97;99665.52;126144;1099;104223;-79
2021/03/18 03:52:22;;;;;;;19.30;9.60;;;;;;;3.48;79.99;99670.78;126240;1098;104172;-79
2021/03/18 03:55:00;;;;;;;20.03;9.30;;;;;;;3.49;79.61;99667.39;126260;1099;104283;-78
2021/03/18 03:57:34;;;;;;;21.70;10.80;;;;;;;3.47;79.11;99668.11;126242;1099;104257;-78
2021/03/18 04:00:08;;;;;;;20.83;11.20;;;;;;;3.46;79.78;99671.51;126230;1098;104309;-78
2021/03/18 04:02:36;;;;;;;;;;;;;;;3.46;79.95;99672.42;126291;1099;104191;-78
2021/03/18 04:05:08;;;;;;;24.87;12.47;;;;;;;3.44;79.68;99684.41;126236;1099;104155;-78
2021/03/18 04:07:40;;;;;;;25.03;12.83;;;;;;;3.45;79.77;99675.81;126268;1099;104271;-78
2021/03/18 04:10:12;;;;;;;26.60;12.93;;;;;;;3.45;79.67;99669.75;126213;1099;104226;-79
2021/03/18 04:12:44;;;;;;;24.70;12.50;;;;;;;3.46;79.11;99666.33;126264;1099;104146;-78
2021/03/18 04:15:17;;;;;;;25.10;12.83;;;;;;;3.48;79.29;99678.56;126107;1099;104152;-79
2021/03/18 04:17:50;;;;;;;27.83;14.13;;;;;;;3.49;79.95;99674.26;126330;1099;104163;-79
2021/03/18 04:20:23;;;;;;;29.33;14.40;;;;;;;3.49;79.79;99695.92;126193;1099;104291;-78
2021/03/18 04:22:56;;;;;;;31.97;16.50;;;;;;;3.50;79.06;99681.23;126182;1099;104137;-79
2021/03/18 04:25:27;;;;;;;33.00;17.17;;;;;;;3.50;79.96;99683.83;126020;1099;104146;-78
2021/03/18 04:27:57;;;;;;;29.83;15.93;;;;;;;3.52;79.58;99688.30;126238;1099;104181;-79
2021/03/18 04:30:28;;;;;;;31.13;15.07;;;;;;;3.52;79.71;99695.16;126223;1099;104261;-78
2021/03/18 04:33:00;;;;;;;30.97;15.87;;;;;;;3.53;79.74;99696.96;126283;1099;104390;-79
2021/03/18 04:35:29;;;;;;;32.10;16.20;;;;;;;3.53;79.77;99699.55;126153;1099;104152;-79
2021/03/18 04:38:01;;;;;;;29.23;14.47;;;;;;;3.53;79.78;99699.55;126243;1099;104153;-78
2021/03/18 04:40:32;;;;;;;29.00;14.57;;;;;;;3.53;79.64;99702.15;126257;1099;104195;-79
2021/03/18 04:43:03;;;;;;;29.43;15.17;;;;;;;3.52;79.39;99700.36;126247;1099;104268;-79
2021/03/18 04:45:33;;;;;;;27.57;13.40;;;;;;;3.54;79.52;99711.72;126190;1099;104753;-78
2021/03/18 04:48:03;;;;;;;27.90;14.27;;;;;;;3.55;79.61;99710.89;125991;1098;104248;-78
2021/03/18 04:50:33;;;;;;;31.43;14.60;;;;;;;3.55;79.60;99718.67;126250;1099;104150;-79
2021/03/18 04:53:02;;;;;;;32.07;15.37;;;;;;;3.56;79.16;99721.34;126146;1099;104329;-79
2021/03/18 04:55:31;;;;;;;29.70;14.80;;;;;;;3.58;79.44;99721.42;126162;1099;104146;-80
2021/03/18 04:58:03;;;;;;;29.93;13.43;;;;;;;3.58;78.90;99724.02;126233;1099;104194;-79
2021/03/18 05:00:34;;;;;;;26.57;13.80;;;;;;;3.58;80.00;99729.20;126251;1099;104313;-79
2021/03/18 05:03:08;;;;;;;33.27;15.77;;;;;;;3.57;79.15;99733.52;126228;1099;104211;-79
2021/03/18 05:05:37;;;;;;;28.43;14.90;;;;;;;3.59;79.06;99733.59;126161;1099;104259;-79
2021/03/18 05:08:07;;;;;;;34.70;14.75;;;;;;;3.59;78.68;99728.41;126200;1099;105843;-79
2021/03/18 05:10:40;;;;;;;30.97;14.50;;;;;;;3.59;79.54;99741.37;126227;1098;104198;-79
2021/03/18 05:13:11;;;;;;;29.50;13.30;;;;;;;3.58;79.88;99748.28;125729;1099;104306;-79
2021/03/18 05:15:41;;;;;;;29.33;14.00;;;;;;;3.56;79.11;99749.00;126213;1099;104207;-79
2021/03/18 05:18:12;;;;;;;30.37;13.80;;;;;;;3.56;79.41;99752.47;126215;1099;112996;-78
2021/03/18 05:20:43;;;;;;;29.03;14.53;;;;;;;3.56;78.88;99756.78;126155;1098;104627;-78
2021/03/18 05:23:14;;;;;;;33.20;14.67;;;;;;;3.55;79.37;99750.71;126180;1099;104176;-77
2021/03/18 05:25:47;;;;;;;31.07;14.90;;;;;;;3.55;79.29;99749.80;126167;1099;104178;-78
2021/03/18 05:28:16;;;;;;;32.10;15.80;;;;;;;3.55;79.37;99760.17;125921;1099;104219;-78
2021/03/18 05:30:46;;;;;;;30.40;15.20;;;;;;;3.56;79.09;99759.38;125959;1099;104178;-78
2021/03/18 05:33:15;;;;;;;28.27;13.87;;;;;;;3.55;79.73;99767.95;126050;1099;104316;-77
2021/03/18 05:35:46;;;;;;;26.77;11.87;;;;;;;3.53;79.34;99761.81;126074;1099;104197;-79
2021/03/18 05:38:16;;;;;;;28.97;13.13;;;;;;;3.51;79.34;99764.33;125987;1099;104143;-79
2021/03/18 05:40:51;;;;;;;28.10;12.03;;;;;;;3.51;79.45;99779.01;126198;1098;104306;-79
2021/03/18 05:43:22;;;;;;;27.47;12.53;;;;;;;3.50;79.48;99774.62;126095;1099;104286;-79
2021/03/18 05:45:51;;;;;;;29.57;13.53;;;;;;;3.48;79.95;99779.73;126156;1098;104242;-79
2021/03/18 05:48:20;;;;;;;28.43;12.53;;;;;;;3.47;78.89;99775.34;125816;1099;104302;-77
2021/03/18 05:50:51;;;;;;;25.40;10.67;;;;;;;3.46;79.24;99796.02;126034;1099;104315;-76
2021/03/18 05:53:22;;;;;;;27.27;12.77;;;;;;;3.43;79.68;99786.39;125308;1099;104142;-77
2021/03/18 05:55:53;;;;;;;27.67;11.97;;;;;;;3.41;79.15;99788.90;126086;1099;104595;-77
2021/03/18 05:58:24;;;;;;;25.43;11.13;;;;;;;3.40;79.07;99792.30;125277;1099;104233;-77
2021/03/18 06:00:54;;;;;;;25.10;11.50;;;;;;;3.41;78.72;99799.27;126195;1099;104354;-77
2021/03/18 06:03:23;;;;;;;26.47;12.17;;;;;;;3.44;79.97;99808.89;126070;1099;104156;-78
2021/03/18 06:05:52;;;;;;;28.83;11.10;;;;;;;3.45;79.27;99815.88;126002;1098;104184;-77
2021/03/18 06:08:23;;;;;;;25.30;10.03;;;;;;;3.46;78.90;99809.89;126003;1099;104679;-78
2021/03/18 06:10:52;;;;;;;22.07;9.77;;;;;;;3.49;79.48;99820.43;125948;1099;104277;-78
2021/03/18 06:13:21;;;;;;;30.17;10.80;;;;;;;3.53;79.58;99818.88;125950;1099;104429;-78
2021/03/18 06:15:50;;;;;;;23.57;9.67;;;;;;;3.59;78.72;99821.80;125951;1099;104264;-78
2021/03/18 06:18:20;;;;;;;26.90;11.00;;;;;;;3.65;79.19;99818.65;126024;1099;104168;-78
2021/03/18 06:20:54;;;;;;;28.07;9.77;;;;;;;3.69;79.30;99813.66;125674;1099;104175;-78
2021/03/18 06:23:23;;;;;;;;;;;;;;;3.75;78.60;99821.77;125967;1099;104203;-78
2021/03/18 06:25:57;;;;;;;26.73;8.73;;;;;;;3.78;79.22;99823.64;125913;1099;104156;-78
2021/03/18 06:28:28;;;;;;;28.85;8.03;;;;;;;3.82;77.98;99825.59;125801;1099;104194;-78
2021/03/18 06:31:02;;;;;;;26.33;8.17;;;;;;;3.84;78.33;99826.56;125917;1099;104275;-77
2021/03/18 06:33:33;;;;;;;27.23;7.30;;;;;;;3.85;78.37;99838.73;125954;1099;104171;-78
2021/03/18 06:36:18;;;;;;;25.80;8.20;;;;;;;3.88;78.40;99837.98;125982;1099;104149;-78
2021/03/18 06:39:06;;;;;;;26.37;8.03;;;;;;;3.89;78.49;99832.87;125972;1099;104217;-79
2021/03/18 06:41:39;;;;;;;26.10;8.03;;;;;;;3.91;78.09;99833.86;126137;1099;104711;-78
2021/03/18 06:44:20;;;;;;;22.43;7.33;;;;;;;4.00;78.14;99848.12;126099;1099;104109;-78
2021/03/18 06:46:51;;;;;;;23.57;7.87;;;;;;;4.03;78.37;99848.28;125946;1099;104316;-78
2021/03/18 06:49:23;;;;;;;25.27;8.73;;;;;;;4.07;77.80;99845.03;126097;1099;105396;-77
2021/03/18 06:52:04;;;;;;;20.93;7.50;;;;;;;4.11;78.37;99840.08;126091;1099;104345;-77
2021/03/18 06:54:36;;;;;;;23.73;8.30;;;;;;;4.17;77.52;99844.67;125048;1099;104338;-78
2021/03/18 06:57:08;;;;;;;28.17;9.40;;;;;;;4.23;77.38;99847.58;125027;1099;104201;-78
2021/03/18 06:59:39;;;;;;;20.90;7.87;;;;;;;4.33;77.58;99848.92;125603;1099;104166;-78
2021/03/18 07:02:11;;;;;;;19.60;7.80;;;;;;;4.39;77.65;99849.23;125875;1099;104299;-78
2021/03/18 07:04:45;;;;;;;20.60;7.20;;;;;;;4.47;77.48;99860.00;125813;1099;105321;-79
2021/03/18 07:07:20;;;;;;;23.10;7.83;;;;;;;4.50;77.13;99862.75;125843;1099;104316;-78
2021/03/18 07:09:51;;;;;;;23.57;7.17;;;;;;;4.55;77.41;99845.70;125376;1099;104294;-78
2021/03/18 07:12:26;;;;;;;22.90;6.77;;;;;;;4.58;77.53;99877.04;125107;1099;104290;-78
2021/03/18 07:14:59;;;;;;;19.27;7.67;;;;;;;4.64;77.21;99850.45;125149;1099;104143;-78
2021/03/18 07:17:33;;;;;;;24.97;8.03;;;;;;;4.74;77.47;99857.89;125176;1099;104316;-79
2021/03/18 07:20:15;;;;;;;19.07;7.57;;;;;;;4.84;76.72;99852.30;125290;1099;104037;-78
2021/03/18 07:22:46;;;;;;;27.90;7.77;;;;;;;4.92;76.66;99863.06;125971;1099;104341;-78
2021/03/18 07:25:18;;;;;;;20.77;7.33;;;;;;;4.93;75.79;99883.05;125972;1099;104226;-78
2021/03/18 07:27:49;;;;;;;24.53;7.00;;;;;;;4.94;75.87;99865.73;126012;1099;104318;-78
2021/03/18 07:30:33;;;;;;;25.70;7.93;;;;;;;5.00;75.76;99874.75;126079;1099;104143;-78
2021/03/18 07:33:06;;;;;;;23.42;7.75;;;;;;;5.07;75.86;99875.05;125968;1099;104579;-78
2021/03/18 07:35:36;;;;;;;23.73;8.00;;;;;;;5.17;76.28;99880.75;125985;1099;104206;-79
2021/03/18 07:38:05;;;;;;;23.13;7.47;;;;;;;5.23;75.03;99882.73;125889;1099;104175;-79
2021/03/18 07:40:35;;;;;;;17.20;6.90;;;;;;;5.29;75.66;99888.22;126140;1099;104181;-78
2021/03/18 07:43:04;;;;;;;21.47;8.27;;;;;;;5.32;75.80;99888.37;126012;1099;104149;-78
2021/03/18 07:45:36;;;;;;;21.37;6.87;;;;;;;5.35;75.51;99874.62;126001;1099;104171;-78
2021/03/18 07:48:06;;;;;;;27.87;6.87;;;;;;;5.39;74.46;99874.84;126102;1098;104217;-80
2021/03/18 07:50:39;;;;;;;20.47;7.43;;;;;;;5.46;74.71;99893.34;125986;1099;104165;-79
2021/03/18 07:53:14;;;;;;;26.30;8.43;;;;;;;5.56;75.34;99887.72;125970;1099;104514;-78
2021/03/18 07:55:43;;;;;;;24.87;7.30;;;;;;;5.60;74.51;99886.17;125942;1099;104354;-78
2021/03/18 07:58:12;;;;;;;21.10;7.40;;;;;;;5.61;75.23;99886.23;125741;1099;104261;-79
2021/03/18 08:00:44;;;;;;;19.30;7.40;;;;;;;5.60;73.93;99894.86;125765;1099;104213;-77
2021/03/18 08:03:30;;;;;;;19.55;7.85;;;;;;;5.60;74.63;99891.38;125974;1099;104293;-77
2021/03/18 08:06:03;;;;;;;19.30;6.80;;;;;;;5.65;74.98;99895.95;125888;1099;104175;-78
2021/03/18 08:08:42;;;;;;;20.70;7.03;;;;;;;5.59;73.93;99890.45;125854;1099;104204;-78
2021/03/18 08:11:22;;;;;;;28.40;8.03;;;;;;;5.56;73.91;99911.14;125688;1099;104069;-78
2021/03/18 08:13:51;;;;;;;19.17;6.80;;;;;;;5.51;73.57;99939.55;125849;1099;104440;-79
2021/03/18 08:16:34;;;;;;;27.77;7.40;;;;;;;5.44;73.75;99910.56;125838;1099;104312;-79
2021/03/18 08:19:09;;;;;;;21.48;8.25;;;;;;;5.37;73.62;99905.08;125839;1099;104306;-77
2021/03/18 08:21:40;;;;;;;22.97;8.63;;;;;;;5.34;74.04;99904.93;125883;1099;104980;-79
2021/03/18 08:24:14;;;;;;;20.80;7.60;;;;;;;5.34;74.05;99910.13;125839;1099;104332;-77
2021/03/18 08:26:50;;;;;;;23.83;8.17;;;;;;;5.36;74.60;99908.52;125874;1099;104296;-78
2021/03/18 08:42:45;;;;;;;23.23;10.00;;;;;;;5.89;73.51;99918.70;124989;1102;104156;-77
2021/03/18 08:45:44;;;;;;;19.80;9.10;;;;;;;5.89;73.88;99909.20;124896;1105;104142;-76
2021/03/18 08:48:21;;;;;;;21.60;8.70;;;;;;;5.87;73.95;99904.73;124853;1105;105232;-78
2021/03/18 08:51:03;;;;;;;19.75;8.73;;;;;;;5.89;73.93;99906.59;124753;1105;104274;-76
2021/03/18 08:53:39;;;;;;;18.80;8.40;;;;;;;5.98;73.95;99910.45;124855;1105;104438;-76
2021/03/18 08:56:09;;;;;;;20.77;9.13;;;;;;;5.96;71.42;99907.75;124951;1105;104258;-76
2021/03/18 08:58:55;;;;;;;23.30;9.27;;;;;;;5.94;73.13;99914.61;124825;1105;104174;-75
2021/03/18 09:01:25;;;;;;;25.10;9.17;;;;;;;5.92;73.25;99911.03;124818;1105;104198;-74
2021/03/18 09:03:59;;;;;;;22.50;8.70;;;;;;;5.94;73.32;99927.63;124866;1105;104353;-75
2021/03/18 09:06:33;;;;;;;18.97;8.37;;;;;;;5.93;71.66;99923.23;124779;1105;104313;-76
2021/03/18 09:09:05;;;;;;;27.50;9.07;;;;;;;5.80;72.18;99920.89;124736;1105;104203;-75
2021/03/18 09:11:34;;;;;;;17.40;8.35;;;;;;;5.70;72.96;99920.50;124777;1105;104168;-76
2021/03/18 09:14:04;;;;;;;16.17;7.20;;;;;;;5.63;73.15;99940.97;124945;1105;104405;-76
2021/03/18 09:16:33;;;;;;;18.37;8.07;;;;;;;5.51;72.95;99930.86;124830;1105;104188;-76
2021/03/18 09:19:03;;;;;;;18.73;8.47;;;;;;;5.42;72.61;99926.11;124878;1106;104456;-77
2021/03/18 09:21:44;;;;;;;22.23;8.90;;;;;;;5.36;72.68;99929.33;124829;1105;104188;-77
2021/03/18 09:24:13;;;;;;;18.00;8.80;;;;;;;5.39;72.96;99934.68;124808;1105;104153;-78
2021/03/18 09:26:42;;;;;;;24.57;9.40;;;;;;;5.56;73.12;99926.75;124798;1105;104169;-76
2021/03/18 09:29:12;;;;;;;21.87;9.27;;;;;;;5.81;73.36;99940.91;124783;1105;104265;-77
2021/03/18 09:31:44;;;;;;;20.60;9.70;;;;;;;5.92;72.66;99943.19;124650;1105;104187;-77
2021/03/18 09:34:14;;;;;;;20.50;9.77;;;;;;;5.98;72.42;99936.50;124789;1105;104226;-78
2021/03/18 09:36:43;;;;;;;19.50;10.17;;;;;;;6.16;72.88;99932.11;124853;1105;104390;-77
2021/03/18 09:39:14;;;;;;;25.67;10.40;;;;;;;6.21;72.14;99932.31;124826;1105;104242;-77
2021/03/18 09:41:46;;;;;;;21.00;9.20;;;;;;;6.20;71.20;99927.92;124851;1105;104507;-76
2021/03/18 09:44:20;;;;;;;21.07;9.50;;;;;;;6.16;71.24;99942.53;124786;1105;104150;-78
2021/03/18 09:46:51;;;;;;;21.73;10.67;;;;;;;6.15;70.69;99940.73;124770;1105;104181;-76
2021/03/18 09:49:29;;;;;;;25.10;11.20;;;;;;;6.27;71.50;99927.38;124837;1102;104178;-77
2021/03/18 09:51:58;;;;;;;25.33;10.53;;;;;;;6.46;71.58;99932.55;124814;1105;104210;-77
2021/03/18 09:54:29;;;;;;;24.60;10.87;;;;;;;6.65;71.15;99926.42;124749;1103;104274;-77
2021/03/18 09:57:00;;;;;;;25.10;10.40;;;;;;;6.62;71.55;99935.81;124735;1105;104191;-77
2021/03/18 09:59:30;;;;;;;21.93;10.20;;;;;;;6.43;71.26;99942.84;124779;1102;104217;-76
2021/03/18 10:02:00;;;;;;;25.40;10.30;;;;;;;6.14;71.57;99940.67;124756;1105;104204;-76
2021/03/18 10:04:37;;;;;;;17.43;8.17;;;;;;;5.92;71.51;99948.40;124782;1105;104153;-77
2021/03/18 10:07:09;;;;;;;14.77;6.90;;;;;;;5.67;71.94;99948.08;124724;1105;104283;-76
2021/03/18 10:09:40;;;;;;;14.27;6.70;;;;;;;5.42;71.96;99953.85;124730;1102;104204;-76
2021/03/18 10:12:12;;;;;;;16.47;7.13;;;;;;;5.13;72.11;99950.76;124841;1105;104140;-77
2021/03/18 10:14:43;;;;;;;14.83;7.23;;;;;;;4.93;72.50;99958.45;124779;1105;104216;-77
2021/03/18 10:17:14;;;;;;;16.57;8.00;;;;;;;4.90;72.49;99963.50;124807;1105;104143;-78
2021/03/18 10:19:50;;;;;;;17.03;8.17;;;;;;;4.91;72.44;99964.38;124824;1105;104213;-77
2021/03/18 10:22:22;;;;;;;18.70;8.63;;;;;;;4.86;72.76;99971.95;124835;1102;104214;-77
2021/03/18 10:25:01;;;;;;;18.47;7.50;;;;;;;4.81;72.05;99978.64;124796;1102;104188;-77
2021/03/18 10:27:34;;;;;;;19.60;8.40;;;;;;;4.81;72.96;99968.24;124823;1105;104593;-75
2021/03/18 10:30:13;;;;;;;19.83;7.83;;;;;;;4.83;72.89;99971.80;124720;1105;104210;-75
2021/03/18 10:32:59;;;;;;;19.00;8.33;;;;;;;4.87;72.77;99973.75;124669;1105;104299;-75
2021/03/18 10:35:29;;;;;;;19.73;9.07;;;;;;;4.93;72.23;99978.37;124723;1105;108220;-77
2021/03/18 10:37:58;;;;;;;22.47;9.63;;;;;;;4.98;72.43;99971.69;124818;1106;104227;-76
2021/03/18 10:40:37;;;;;;;18.50;9.03;;;;;;;5.07;72.33;99972.14;124798;1105;104223;-75
2021/03/18 10:43:24;;;;;;;22.23;9.60;;;;;;;5.14;72.29;99969.03;124786;1105;104310;-77
2021/03/18 10:45:55;;;;;;;20.50;8.97;;;;;;;5.25;72.05;99964.36;124715;1105;117928;-76
2021/03/18 10:48:26;;;;;;;21.50;9.40;;;;;;;5.38;72.29;99968.44;124870;1102;104283;-77
2021/03/18 10:53:47;;;;;;;23.67;9.40;;;;;;;5.81;72.35;99980.84;124837;1105;104205;-75
2021/03/18 10:56:19;;;;;;;21.57;9.53;;;;;;;5.83;72.30;99980.91;124826;1103;104171;-76
2021/03/18 10:58:49;;;;;;;22.30;9.77;;;;;;;5.79;72.12;99968.59;124817;1105;104646;-76
2021/03/18 11:01:24;;;;;;;22.10;8.50;;;;;;;5.72;72.27;99983.93;124795;1105;104257;-76
2021/03/18 11:04:03;;;;;;;21.03;8.50;;;;;;;5.65;71.99;99974.03;124704;1103;104178;-77
2021/03/18 11:06:33;;;;;;;18.67;8.57;;;;;;;5.64;72.22;99980.08;124743;1105;104297;-77
2021/03/18 11:09:02;;;;;;;23.37;8.53;;;;;;;5.62;72.41;99976.50;124721;1104;104178;-77
2021/03/18 11:11:33;;;;;;;19.30;8.63;;;;;;;5.61;72.42;99973.81;124722;1105;104194;-77
2021/03/18 11:14:08;;;;;;;20.87;8.53;;;;;;;5.61;71.95;99971.22;124652;1106;104188;-78
2021/03/18 11:16:38;;;;;;;22.97;10.43;;;;;;;5.69;72.04;99988.99;124645;1105;104156;-78
2021/03/18 11:19:09;;;;;;;22.17;9.50;;;;;;;5.80;71.66;99967.75;124654;1105;104185;-78
2021/03/18 11:21:53;;;;;;;21.70;8.60;;;;;;;5.93;71.57;99978.80;124709;1102;104184;-77
2021/03/18 11:24:30;;;;;;;20.30;8.33;;;;;;;6.00;70.90;99972.22;124732;1105;104179;-76
2021/03/18 11:27:05;;;;;;;19.80;8.17;;;;;;;5.97;70.90;99973.77;124667;1105;104360;-77
2021/03/18 11:29:43;;;;;;;18.87;8.33;;;;;;;5.91;71.37;99972.64;124657;1105;104351;-77
2021/03/18 11:32:25;;;;;;;20.80;8.43;;;;;;;5.93;71.75;99975.32;124633;1105;104581;-77
2021/03/18 11:34:58;;;;;;;23.33;8.00;;;;;;;6.01;71.09;99976.59;124704;1106;104303;-77
2021/03/18 11:37:29;;;;;;;14.77;7.07;;;;;;;6.08;70.93;99977.78;124733;1105;104203;-76
2021/03/18 11:39:59;;;;;;;19.43;7.80;;;;;;;6.19;71.12;99981.75;124688;1105;104402;-76
2021/03/18 11:42:31;;;;;;;22.40;9.03;;;;;;;6.32;71.29;99977.97;124684;1105;104236;-76
2021/03/18 11:45:06;;;;;;;21.83;9.13;;;;;;;6.40;71.20;99973.09;124781;1105;104178;-76
2021/03/18 11:51:38;;;;;;;19.83;8.03;;;;;;;6.44;70.49;99983.72;124818;1105;104267;-76
2021/03/18 11:54:20;;;;;;;20.80;8.00;;;;;;;6.51;70.56;100002.24;124774;1105;104252;-76
2021/03/18 11:56:57;;;;;;;26.23;9.07;;;;;;;6.54;70.43;99974.58;124678;1104;104319;-77
2021/03/18 11:59:28;;;;;;;23.00;9.67;;;;;;;6.65;70.78;99982.87;124946;1106;104297;-76